Cave Springs, Texas
Current Conditions -  °F | °C
As of 2:35 AM on Saturday 22 Nov 2014 (Local Time) from KASL Reporting Station
Broken Clouds Broken Clouds  
Wind Chill: 49°   Ceiling: 3200
Heat Index: 49°   Visibility: 10mi
Dew Point: 47°   Wind: 0mph
Humidity: 92%   Direction: NA
Pressure: 30.19"   Gusts: NA
Location:  32.4675°N, 94.3321°W
Report Text: KASL 220835Z AUTO 00000KT 10SM BKN032 10/08 A3019 RMK AO1 T00970084
Loading
Personal Weather Stations






























Interactive Weather Map New forecast layout! Learn more

10-Day Weather Forecast

Advertisements
Track Severe Weather on mobile